Vol.365 
[2015/12/30]
BackNo.
みなさん、
こんにちは。
パソコンGPSニュースは、第362【2015/5/10】号からHTML形式での配信となりました。
ご覧になれない方は、以下のニュースWEBをご覧ください。
http://www.rakuten.ne.jp/gold/gps/rNews/BackNo/PcGpsNews_365.html

Vol.365 【目次】   1 エクストリーム818xt/10Hz*Bluetooth新発売【技適マーク付】
更新 ※a: 10HzでもSBAS=ON有効に訂正 ・・・2016/1/1

A. エクストリーム818xtシリーズ商品一覧


1 エクストリーム818xt/10Hz*Bluetooth新発売【技適マーク付】



電波法認証を取得したBluetooth接続型GPSセンサー
・エクストリーム818xt/10Hz*Bluetooth
の発売を開始いたしました。

ご承知のとおり、日本において Bluetooth機器は、電波法の技術基準をクリアしないと 使用することはできません。
そのため、最近では、 Bluetooth型GPSレシーバを入手することが、 非常に難しくなって来ております。

そこで、弊社では、かねてよりお客様からご要望が強かった
・エクストリーム818xt/10Hz
電波法技術基準適合認定を、メーカの協力を得て独自に申請し、このほど取得したものです。


エクストリーム818xt/10Hz*Bluetooth に内蔵しているGPSエンジン(MTK II)は最新ではありませんが、
それだけに、安定した品質を備え、 マルチHz出力のGPSセンサーとしては、 良好な性能を持っています。

測位結果は、1Hzまたは10Hzで出力可能です。
10Hzにおいても、 115200BPSの通信速度で、NMEA0183:Ver.3.01の GGA/GSA/GSV/RMCセンテンスをフル出力します。

> $GPGGA,104529.100,3621.7688,N,13945.3187,E,1,10,0.83,45.2,M,38.8,M,,*5C
> $GPGSA,A,3,14,32,31,29,25,22,12,10,24,26,,,1.14,0.83,0.78*08
> $GPGSV,4,1,13,14,87,189,45,25,60,039,47,50,47,171,38,31,44,303,47*76
> $GPGSV,4,2,13,29,38,131,45,22,25,227,45,32,23,298,40,26,22,232,46*7C
> $GPGSV,4,3,13,12,20,044,44,10,18,207,44,24,07,090,37,03,03,326,36*7E
> $GPGSV,4,4,13,18,01,181,21*48
> $GPRMC,104529.100,A,3621.7688,N,13945.3187,E,0.02,312.25,291215,,,A*6D
> $GPGGA,104529.200,3621.7688,N,13945.3186,E,1,10,0.83,45.2,M,38.8,M,,*5E
> $GPGSA,A,3,14,32,31,29,25,22,12,10,24,26,,,1.14,0.83,0.78*08
> $GPGSV,4,1,13,14,87,189,45,25,60,039,47,50,47,171,38,31,44,303,47*76
> $GPGSV,4,2,13,29,38,131,45,22,25,227,45,32,23,298,40,26,22,232,46*7C
> $GPGSV,4,3,13,12,20,044,44,10,18,207,44,24,07,090,37,03,03,326,36*7E
> $GPGSV,4,4,13,18,01,181,21*48
> $GPRMC,104529.200,A,3621.7688,N,13945.3186,E,0.01,312.25,291215,,,A*6C
> $GPGGA,104529.300,3621.7689,N,13945.3186,E,1,10,0.83,45.1,M,38.8,M,,*5D

接続は、 Bluetooth/ USB の両方が可能です。

BluetoothおよびUSB(WindowsXP/7/8)接続の場合は、 デバイスドライバーにより、 アプリケーションプログラムに対応した通信速度に自動的に変更されます。
従って、4800BPSで
・スーパーマップルデジタル
・Zi
・カシミール3D
といった地図ソフトにも使用することができます。


但し、上記の地図ソフトは、ソフト側の制約で、1Hz出力の場合に限ります。
また、4800BPSで、すべてのセンテンスを毎秒出力するとオーバーフローしてしまうので 例えば
・GGA:毎秒
・GSA:5秒毎
・GSV:5秒毎
・RMC:毎秒
といった具合に、出力周期を変更すると良いでしょう。

設定の変更は、商品添付のユーティリティソフト
・GPS View
で行います。


このユーティリティを使用すると、 GLL/VTG/ZDAセンテンスの出力や、 SBAS (衛星によるDGPS、日本ではMSAS、米国ではWAAS) 設定等もできます。

> $GPGGA,104422.400,3621.7690,N,13945.3200,E,1,10,0.83,44.0,M,38.8,M,,*55
> $GPGLL,3621.7690,N,13945.3200,E,104422.400,A,A*59
> $GPRMC,104422.400,A,3621.7690,N,13945.3200,E,0.02,105.90,291215,,,A*6D
> $GPVTG,105.90,T,,M,0.02,N,0.03,K,A*31
> $GPZDA,104422.400,29,12,2015,,*5D
> $GPGGA,104422.500,3621.7690,N,13945.3200,E,1,10,0.83,44.0,M,38.8,M,,*54
> $GPGLL,3621.7690,N,13945.3200,E,104422.500,A,A*58
> $GPRMC,104422.500,A,3621.7690,N,13945.3200,E,0.01,105.90,291215,,,A*6F
> $GPVTG,105.90,T,,M,0.01,N,0.02,K,A*33
> $GPZDA,104422.500,29,12,2015,,*5C
> $GPGGA,104422.600,3621.7690,N,13945.3200,E,1,10,0.83,44.0,M,38.8,M,,*57

SBASは、10Hzでも有効なので、かなり強力なGPSレシーバであるといえます。 ※a
> $GPGGA,221936.600,3621.7672,N,13945.3186,E,2,11,0.82,49.7,M,38.8,M,0000,0000*53
> $GPGSA,A,3,12,19,06,23,03,09,28,01,11,02,17,,1.32,0.82,1.04*04
> $GPGSV,4,1,13,17,86,313,52,19,78,126,51,42,47,171,42,06,42,299,49*7D
> $GPGSV,4,2,13,23,39,105,50,03,37,045,48,09,30,150,48,28,27,208,45*7B
> $GPGSV,4,3,13,01,18,080,45,11,09,103,43,02,08,281,47,12,07,325,46*71
> $GPGSV,4,4,13,32,03,045,40*4C
> $GPRMC,221936.600,A,3621.7672,N,13945.3186,E,0.03,160.36,311215,,,D*60
> $GPGGA,221936.700,3621.7672,N,13945.3186,E,2,11,0.82,49.7,M,38.8,M,0000,0000*52
> $GPGSA,A,3,12,19,06,23,03,09,28,01,11,02,17,,1.32,0.82,1.04*04
> $GPGSV,4,1,13,17,86,313,52,19,78,126,51,42,47,171,42,06,42,299,49*7D
> $GPGSV,4,2,13,23,39,105,50,03,37,045,48,09,30,150,48,28,27,208,45*7B
> $GPGSV,4,3,13,01,18,080,45,11,09,103,43,02,08,281,47,12,07,325,46*71
> $GPGSV,4,4,13,32,03,045,40*4C
> $GPRMC,221936.700,A,3621.7672,N,13945.3186,E,0.03,160.36,311215,,,D*61
> $GPGGA,221936.800,3621.7672,N,13945.3186,E,2,11,0.82,49.7,M,38.8,M,0000,0000*5D

変更した内容は、充電が残っている限り有効です。

交換可能な充電池を内蔵しており、満充電で 約42時間、外部給電無しに連続稼働します(1Hz出力の場合)。
稼働時間の長さは、他のBluetooth対応GPSレシーバには無い、本商品の特長です。
さらに外部給電では、給電中連続測位します。

PCがWindows8以上の場合、Bluetooth接続では、ほとんど問題ありませんが、 USB接続の場合は、インストール時にUSBまたはPS/2接続型のキーボードが必須です。
この問題は、
・テセオGNSS/USB
等、他のUSB接続型GPSレシーバの場合と同じですね。
※関連記事は、 こちら を参照して下さい。

なお、細かなことですが、幾つか注意点があります。
1)測位更新間隔(1Hz/10Hz)の変更は、GPSレシーバの側面にあるスイッチで行います。
 ユーティリティにも、測位更新間隔(Fix Update Rate)の変更がありますが、こちらは使わないで下さい。
 GPSレシーバがハングアップすることがあります。
2)アプリケーションソフトとの通信中は、測位更新間隔の変更を行わないで下さい。
 アプリケーションソフトとの通信中に、測位更新間隔の変更を行うと、異常終了することがあります。

電波法の技術基準適合認定を取得した、 いわゆる技適マークを貼付したGPSレシーバを、 ようやくお届けできるようになりました。
これで、安心して、日本国内で Bluetooth接続のGPSセンサーをご利用になることができます。

・エクストリーム818xt/10Hz*Bluetooth
どうぞご活用下さい。



A. エクストリーム818xtシリーズ商品一覧

●エクストリーム818xt/10Hz【本体】

USB接続だけで良い時は
エクストリーム818xt/10Hz*USB
最大10Hz出力
《NMEA最適設定済》


Bluetooth接続も必要な時は
エクストリーム818xt/10Hz*Bluetooth
【電波法認証済】
最大10Hz出力


●エクストリーム818xt/10Hz用アダプター

Bluetooth/USBドングル



充電池



●エクストリーム818xt/10Hz用ケース

ポーチ



アームホルダー



●エクストリーム818xt/10Hz用防水ケース

ソフトケース
アクアパック108



アームホルダー
アクアパック216(小型)



ハードケース
Pelican 1010




パソコンGPSショップ
パソコンGPSニュース編集部

〒328-0024 栃木県栃木市樋ノ口町396-1
株式会社SPA GPS/ITセンター
TEL:0282-20-0620, FAX:0282-20-0621
http://www.rakuten.co.jp/gps/
http://www.facebook.com/pages/Gps-Concierge/
E-mail:gps@spa-japan.co.jp

Copyright(c) 2015 SystemProducerAssoicateCorpretion All Right Reserved.